Time;durP1;ratioP1;P1;durP2;ratioP2;P2;SDS_P1;SDS_P2;PMS_P1;PMS_P2;Temp;Humidity;BMP_temperature;BMP_pressure;BME280_temperature;BME280_humidity;BME280_pressure;Samples;Min_cycle;Max_cycle;Signal;HPM_P1;HPM_P2
2022/12/30 00:01:32;;;;;;;4.60;4.17;;;-0.70;99.90;0.10;96702.00;;;;5025180;28;20981;-83
2022/12/30 00:04:21;;;;;;;4.23;3.37;;;-0.60;99.90;-0.50;96692.00;;;;5030903;28;20436;-84
2022/12/30 00:07:11;;;;;;;3.80;2.00;;;-0.70;99.90;-0.40;96685.00;;;;5027071;28;20981;-84
2022/12/30 00:10:00;;;;;;;1.93;1.83;;;-0.80;99.90;-0.40;96683.00;;;;5025982;28;20460;-81
2022/12/30 00:34:45;;;;;;;2.60;1.73;;;-0.70;99.90;-0.90;96661.00;;;;5026072;28;20424;-85
2022/12/30 00:37:34;;;;;;;2.80;2.30;;;-0.60;99.90;-0.70;96675.00;;;;5031473;28;20428;-84
2022/12/30 00:40:24;;;;;;;2.80;2.50;;;-1.00;99.90;0.00;96667.00;;;;5024423;28;20455;-84
2022/12/30 00:43:12;;;;;;;2.23;2.10;;;-1.00;99.90;-0.20;96668.00;;;;5032677;28;20429;-84
2022/12/30 00:46:02;;;;;;;2.87;2.53;;;-1.00;99.90;-0.50;96669.00;;;;5031945;28;20964;-83
2022/12/30 00:58:12;;;;;;;3.63;3.00;;;-0.90;99.90;0.40;96675.00;;;;5029242;28;20933;-85
2022/12/30 01:01:01;;;;;;;3.37;2.33;;;-0.90;99.90;0.00;96674.00;;;;5024880;28;20444;-85
2022/12/30 01:03:50;;;;;;;2.57;2.17;;;-0.80;99.90;0.20;96677.00;;;;5027277;28;20436;-83
2022/12/30 01:06:38;;;;;;;3.47;2.23;;;-0.80;99.90;0.20;96669.00;;;;5028860;28;20432;-85
2022/12/30 01:09:27;;;;;;;3.33;2.90;;;-0.80;99.90;0.10;96669.00;;;;5023111;28;20440;-82
2022/12/30 01:12:16;;;;;;;2.20;1.97;;;-0.80;99.90;-0.10;96671.00;;;;5032486;28;20432;-85
2022/12/30 01:15:09;;;;;;;4.00;3.00;;;-0.80;99.90;-0.80;96662.00;;;;5031827;28;20443;-84
2022/12/30 01:17:58;;;;;;;3.90;2.77;;;-0.90;99.90;-0.50;96676.00;;;;5032993;28;20424;-85
2022/12/30 01:20:47;;;;;;;2.27;1.90;;;-1.00;99.90;-0.90;96675.00;;;;5026894;28;20833;-84
2022/12/30 01:23:36;;;;;;;3.77;2.67;;;-0.40;99.90;-0.70;96661.00;;;;5025438;28;20843;-82
2022/12/30 01:26:25;;;;;;;4.93;2.00;;;-1.10;99.90;-0.20;96668.00;;;;5031924;28;20436;-85
2022/12/30 01:29:20;;;;;;;1.17;1.13;;;-1.00;99.90;-0.60;96672.00;;;;5031710;28;20938;-88
2022/12/30 01:32:14;;;;;;;3.37;3.07;;;-0.90;99.90;-0.60;96669.00;;;;5032360;28;20424;-82
2022/12/30 01:35:04;;;;;;;3.23;2.93;;;-0.90;99.90;-0.50;96676.00;;;;5027270;28;20424;-85
2022/12/30 01:37:53;;;;;;;3.00;2.63;;;-1.00;99.90;-0.30;96673.00;;;;5031360;28;20941;-83
2022/12/30 01:40:43;;;;;;;2.77;2.43;;;-1.00;99.90;-0.60;96661.00;;;;5032088;28;20472;-85
2022/12/30 01:43:49;;;;;;;1.73;1.63;;;-1.10;99.90;-0.70;96668.00;;;;5023131;28;20424;-87
2022/12/30 01:46:38;;;;;;;3.40;2.57;;;-0.60;99.90;-0.50;96669.00;;;;5022937;28;20435;-85
2022/12/30 01:49:29;;;;;;;2.80;2.60;;;-1.00;99.90;-0.40;96657.00;;;;5030598;28;20436;-85
2022/12/30 01:52:21;;;;;;;3.20;2.67;;;-1.10;99.90;-0.40;96659.00;;;;5031393;28;20437;-85
2022/12/30 01:55:15;;;;;;;1.97;1.87;;;-0.70;99.90;-0.30;96656.00;;;;5032030;28;20455;-84
2022/12/30 01:58:08;;;;;;;3.27;2.97;;;-1.00;99.90;-0.20;96653.00;;;;5030916;28;20810;-85
2022/12/30 02:00:57;;;;;;;4.27;3.03;;;-0.90;99.90;-0.10;96652.00;;;;5030432;28;20444;-82
2022/12/30 02:03:56;;;;;;;1.53;1.43;;;-0.90;99.90;-1.00;96654.00;;;;5030686;28;20432;-85
2022/12/30 02:06:54;;;;;;;3.13;2.80;;;-0.80;99.90;-0.70;96650.00;;;;5031765;28;20455;-83
2022/12/30 02:09:44;;;;;;;3.17;2.70;;;-1.10;99.90;-0.30;96660.00;;;;5030714;28;20428;-84
2022/12/30 02:12:33;;;;;;;2.10;1.93;;;-1.00;99.90;-0.10;96655.00;;;;5021879;28;20443;-85
2022/12/30 02:15:27;;;;;;;4.00;3.03;;;-0.90;99.90;0.30;96655.00;;;;5027453;28;20432;-84
2022/12/30 02:18:25;;;;;;;3.20;2.67;;;-0.80;99.90;-0.20;96660.00;;;;5030444;28;20439;-84
2022/12/30 02:21:44;;;;;;;2.53;2.33;;;-0.70;99.90;0.10;96658.00;;;;5031186;28;20456;-81
2022/12/30 02:25:23;;;;;;;1.30;1.20;;;-0.60;99.90;-0.10;96658.00;;;;5031779;28;20429;-87
2022/12/30 02:29:09;;;;;;;4.67;2.67;;;-0.60;99.90;0.30;96662.00;;;;5029098;28;20805;-85
2022/12/30 02:32:08;;;;;;;1.63;1.27;;;-0.60;99.90;-0.30;96669.00;;;;5008809;28;20464;-84
2022/12/30 02:35:07;;;;;;;4.43;1.97;;;-0.60;99.90;0.10;96665.00;;;;5025673;28;20431;-84
2022/12/30 02:38:10;;;;;;;3.07;2.40;;;-0.60;99.90;0.10;96666.00;;;;5029901;28;20808;-82
2022/12/30 02:47:31;;;;;;;4.00;2.70;;;-0.40;99.90;0.90;96682.00;;;;5030750;28;20429;-83
2022/12/30 02:53:39;;;;;;;2.50;2.30;;;-0.10;99.90;0.40;96665.00;;;;4996141;28;20443;-83
2022/12/30 02:56:28;;;;;;;4.47;2.67;;;-0.10;99.90;0.40;96671.00;;;;5030205;28;20428;-84
2022/12/30 03:06:01;;;;;;;2.47;2.13;;;-0.50;99.90;0.10;96673.00;;;;5028546;28;20424;-83
2022/12/30 03:08:59;;;;;;;2.17;1.53;;;-0.50;99.90;0.10;96668.00;;;;5031033;28;20436;-81
2022/12/30 03:11:59;;;;;;;2.63;2.43;;;-0.60;99.90;0.10;96674.00;;;;5018697;28;20456;-82
2022/12/30 03:14:55;;;;;;;2.53;2.33;;;-0.60;99.90;0.40;96676.00;;;;5027963;28;20443;-81
2022/12/30 03:17:47;;;;;;;5.57;3.27;;;-0.50;99.90;0.50;96669.00;;;;5033850;28;20995;-82
2022/12/30 03:20:39;;;;;;;3.20;2.90;;;-0.50;99.90;0.50;96677.00;;;;5034274;28;20483;-83
2022/12/30 03:29:48;;;;;;;3.70;2.57;;;-0.30;99.90;0.70;96682.00;;;;5047416;28;20427;-79
2022/12/30 03:32:37;;;;;;;2.47;2.10;;;-0.30;99.90;0.50;96695.00;;;;5056079;28;20412;-81
2022/12/30 03:35:29;;;;;;;3.77;2.43;;;-0.30;99.90;0.50;96697.00;;;;5039495;28;20448;-82
2022/12/30 03:38:22;;;;;;;3.80;2.27;;;-0.30;99.90;0.70;96688.00;;;;5020653;28;20832;-82
2022/12/30 03:41:12;;;;;;;2.37;2.17;;;-0.30;99.90;0.60;96701.00;;;;5034799;28;20476;-85
2022/12/30 03:44:01;;;;;;;2.77;2.57;;;-0.30;99.90;0.90;96702.00;;;;5034523;28;20436;-85
2022/12/30 03:46:50;;;;;;;3.07;2.13;;;-0.20;99.90;0.90;96702.00;;;;5033514;28;20440;-85
2022/12/30 03:49:41;;;;;;;7.53;2.60;;;-0.20;99.90;0.70;96711.00;;;;5034782;28;20436;-86
2022/12/30 03:52:31;;;;;;;3.50;2.50;;;-0.20;99.90;0.80;96704.00;;;;5034864;28;20925;-85
2022/12/30 03:55:20;;;;;;;4.17;3.27;;;-0.10;99.90;0.40;96705.00;;;;5033868;28;20432;-86
2022/12/30 03:58:09;;;;;;;3.77;3.47;;;-0.20;99.90;0.40;96709.00;;;;5033654;28;20838;-85
2022/12/30 04:00:58;;;;;;;2.33;2.13;;;-0.30;99.90;0.00;96715.00;;;;5035122;28;20472;-85
2022/12/30 04:03:47;;;;;;;2.17;2.00;;;0.00;99.90;0.00;96702.00;;;;5035112;28;20438;-86
2022/12/30 04:06:35;;;;;;;3.13;2.10;;;-0.50;99.90;0.00;96698.00;;;;5034091;28;20432;-83
2022/12/30 04:09:26;;;;;;;3.80;2.87;;;-0.50;99.90;0.60;96701.00;;;;5034536;28;20964;-81
2022/12/30 04:12:15;;;;;;;3.97;2.70;;;-0.50;99.90;0.60;96702.00;;;;5035141;28;20432;-83
2022/12/30 04:15:04;;;;;;;3.67;2.60;;;-0.50;99.90;0.50;96705.00;;;;5029770;28;20428;-85
2022/12/30 04:17:53;;;;;;;3.97;3.57;;;-0.40;99.90;0.40;96705.00;;;;5033257;28;20420;-84
2022/12/30 04:20:42;;;;;;;3.13;2.80;;;-0.40;99.90;0.50;96707.00;;;;5034116;28;20456;-85
2022/12/30 04:23:31;;;;;;;2.40;2.20;;;-0.40;99.90;0.50;96709.00;;;;5025107;28;20432;-84
2022/12/30 04:26:21;;;;;;;2.70;1.10;;;-0.40;99.90;-0.10;96710.00;;;;5033583;28;20925;-85
2022/12/30 04:29:11;;;;;;;1.90;1.80;;;-0.50;99.90;-0.20;96700.00;;;;5033132;28;20436;-85
2022/12/30 04:31:59;;;;;;;3.83;3.43;;;-0.60;99.90;0.10;96719.00;;;;5033346;28;20471;-84
2022/12/30 04:34:48;;;;;;;3.53;2.60;;;-0.60;99.90;0.10;96719.00;;;;5031467;28;20424;-84
2022/12/30 04:37:37;;;;;;;2.53;2.10;;;-0.50;99.90;0.10;96717.00;;;;5034264;28;20417;-82
2022/12/30 04:40:26;;;;;;;2.43;2.23;;;-0.50;99.90;0.10;96735.00;;;;5026662;28;20795;-84
2022/12/30 04:43:16;;;;;;;3.43;3.13;;;-0.50;99.90;0.50;96752.00;;;;5032891;28;20435;-85
2022/12/30 04:46:06;;;;;;;2.63;2.43;;;-0.50;99.90;0.30;96747.00;;;;5021461;28;20876;-82
2022/12/30 04:48:54;;;;;;;1.63;1.53;;;-0.50;99.90;0.10;96745.00;;;;5033757;28;20429;-84
2022/12/30 04:51:44;;;;;;;2.77;1.97;;;-0.50;99.90;0.50;96757.00;;;;5033101;28;20873;-83
2022/12/30 04:54:33;;;;;;;4.63;2.40;;;-0.40;99.90;0.60;96758.00;;;;5033936;28;20440;-84
2022/12/30 04:57:22;;;;;;;3.20;2.90;;;-0.40;99.90;0.70;96757.00;;;;5033209;28;20681;-85
2022/12/30 05:00:14;;;;;;;2.83;1.80;;;-0.20;99.90;0.70;96764.00;;;;5034258;28;20856;-85
2022/12/30 05:03:03;;;;;;;4.10;2.83;;;-0.40;99.90;0.70;96771.00;;;;5032309;28;20941;-82
2022/12/30 05:05:52;;;;;;;6.07;3.00;;;-0.40;99.90;0.60;96763.00;;;;5032552;28;20590;-85
2022/12/30 05:08:41;;;;;;;3.50;2.80;;;-0.40;99.90;0.60;96766.00;;;;5032816;28;20447;-85
2022/12/30 05:11:30;;;;;;;3.73;2.37;;;-0.40;99.90;0.60;96767.00;;;;5033619;28;20452;-85
2022/12/30 05:14:19;;;;;;;7.97;2.83;;;-0.30;99.90;0.50;96775.00;;;;5033641;28;20424;-83
2022/12/30 05:17:09;;;;;;;2.13;1.93;;;-0.30;99.90;0.20;96790.00;;;;5054360;28;20432;-83
2022/12/30 05:19:58;;;;;;;2.23;1.77;;;-0.40;99.90;0.00;96790.00;;;;5049324;28;20429;-85
2022/12/30 05:22:47;;;;;;;1.40;1.33;;;-0.50;99.90;-0.30;96788.00;;;;5036180;28;20432;-85
2022/12/30 05:28:42;;;;;;;2.50;2.27;;;-0.70;99.90;0.10;96805.00;;;;5033596;28;20432;-85
2022/12/30 05:31:31;;;;;;;2.60;2.37;;;-0.70;99.90;0.10;96809.00;;;;5033825;28;20460;-86
2022/12/30 05:34:21;;;;;;;2.67;2.47;;;-0.70;99.90;0.10;96814.00;;;;5032174;28;20439;-85
2022/12/30 05:37:10;;;;;;;4.13;2.70;;;-0.70;99.90;0.40;96838.00;;;;5033697;28;20819;-85
2022/12/30 05:39:59;;;;;;;2.80;2.57;;;-0.60;99.90;0.50;96843.00;;;;5033440;28;20456;-85
2022/12/30 05:42:48;;;;;;;2.87;2.57;;;-0.50;99.90;0.30;96844.00;;;;5032106;28;20436;-86
2022/12/30 05:45:37;;;;;;;2.70;2.50;;;-0.50;99.90;-0.10;96839.00;;;;5034584;28;20949;-85
2022/12/30 05:48:26;;;;;;;2.30;2.20;;;-0.60;99.90;0.10;96852.00;;;;5032047;28;20521;-83
2022/12/30 05:51:16;;;;;;;2.30;2.10;;;-0.60;99.90;0.20;96847.00;;;;5031624;28;20451;-84
2022/12/30 05:54:05;;;;;;;2.80;2.33;;;-0.60;99.90;0.30;96854.00;;;;5031737;28;20806;-82
2022/12/30 05:56:54;;;;;;;2.60;2.30;;;-0.50;99.90;0.00;96853.00;;;;5034049;28;20424;-85
2022/12/30 05:59:43;;;;;;;0.93;0.93;;;-0.50;99.90;-0.30;96847.00;;;;5032714;28;20437;-87
2022/12/30 06:02:34;;;;;;;2.70;2.50;;;-0.60;99.90;0.00;96857.00;;;;5032468;28;20466;-85
2022/12/30 06:05:26;;;;;;;4.60;4.13;;;-0.60;99.90;0.20;96856.00;;;;5032508;28;20440;-84
2022/12/30 06:08:16;;;;;;;4.77;3.27;;;-0.60;99.90;0.20;96874.00;;;;5032630;28;20420;-86
2022/12/30 06:11:06;;;;;;;1.33;1.10;;;-0.50;99.90;0.10;96859.00;;;;5033653;28;20452;-88
2022/12/30 06:13:55;;;;;;;2.53;2.27;;;-0.50;99.90;0.00;96861.00;;;;5032687;28;20423;-85
2022/12/30 06:16:44;;;;;;;2.37;2.10;;;-0.50;99.90;0.30;96861.00;;;;5026684;28;20841;-85
2022/12/30 06:19:33;;;;;;;3.33;3.03;;;-0.40;99.90;0.30;96866.00;;;;5032737;28;20451;-87
2022/12/30 06:22:22;;;;;;;2.20;2.00;;;-0.30;99.90;0.40;96871.00;;;;5032648;28;20472;-84
2022/12/30 06:25:12;;;;;;;2.43;2.07;;;-0.20;99.90;0.70;96881.00;;;;5032390;28;20424;-84
2022/12/30 06:28:01;;;;;;;3.13;2.40;;;-0.10;99.90;1.00;96880.00;;;;5031662;28;20440;-84
2022/12/30 06:30:50;;;;;;;2.37;2.03;;;0.00;99.90;1.00;96882.00;;;;5032596;28;20455;-84
2022/12/30 06:33:39;;;;;;;2.40;1.93;;;0.10;99.90;1.00;96880.00;;;;5031007;28;20436;-85
2022/12/30 06:36:28;;;;;;;2.03;1.17;;;0.20;99.90;0.50;96898.00;;;;5034179;28;20424;-88
2022/12/30 06:39:17;;;;;;;2.60;2.40;;;0.20;99.90;0.80;96910.00;;;;5029654;28;20788;-84
2022/12/30 06:42:07;;;;;;;2.33;2.23;;;0.20;99.90;0.80;96922.00;;;;5029615;28;20484;-87
2022/12/30 06:44:56;;;;;;;3.10;2.80;;;0.20;99.90;1.10;96923.00;;;;5029807;28;20451;-83
2022/12/30 06:47:45;;;;;;;2.80;2.60;;;0.30;99.90;1.50;96923.00;;;;5031021;28;20429;-85
2022/12/30 06:50:36;;;;;;;4.67;3.20;;;0.40;99.90;1.40;96923.00;;;;5026202;28;20964;-87
2022/12/30 06:53:25;;;;;;;2.30;2.10;;;0.40;99.90;1.10;96919.00;;;;5033017;28;20789;-85
2022/12/30 06:56:13;;;;;;;3.20;2.77;;;0.30;99.90;1.30;96923.00;;;;5026878;28;20433;-84
2022/12/30 06:59:04;;;;;;;3.60;2.70;;;0.40;99.90;1.50;96935.00;;;;5034361;28;20822;-85
2022/12/30 07:01:53;;;;;;;3.93;2.87;;;0.40;99.90;1.50;96949.00;;;;5034707;28;20829;-88
2022/12/30 07:04:42;;;;;;;2.17;1.73;;;0.60;99.90;0.90;96956.00;;;;5033368;28;20420;-88
2022/12/30 07:07:31;;;;;;;1.30;1.20;;;0.60;99.90;0.80;96949.00;;;;5013664;28;20444;-87
2022/12/30 07:10:20;;;;;;;2.73;1.80;;;0.40;99.90;0.70;96952.00;;;;5029963;28;20440;-86
2022/12/30 07:13:09;;;;;;;4.43;3.43;;;0.30;99.90;1.20;96963.00;;;;5030080;28;20437;-85
2022/12/30 07:15:59;;;;;;;3.20;2.50;;;0.40;99.90;1.20;96966.00;;;;5034594;28;20435;-84
2022/12/30 07:18:48;;;;;;;11.70;8.30;;;0.40;99.90;1.20;96970.00;;;;5029702;28;20428;-84
2022/12/30 07:21:37;;;;;;;12.90;7.10;;;0.50;99.90;1.40;96991.00;;;;5032851;28;20996;-83
2022/12/30 07:24:25;;;;;;;5.80;5.23;;;0.50;99.90;1.90;96987.00;;;;5034775;28;20432;-83
2022/12/30 07:27:14;;;;;;;8.47;5.93;;;0.70;99.90;2.00;96991.00;;;;5035563;28;20429;-85
2022/12/30 07:30:05;;;;;;;8.50;4.77;;;0.80;99.90;2.10;96976.00;;;;5034480;28;20474;-85
2022/12/30 07:32:56;;;;;;;6.23;4.87;;;0.90;99.90;2.40;96982.00;;;;5036700;28;20428;-84
2022/12/30 07:35:45;;;;;;;16.07;8.67;;;1.10;99.90;2.30;96979.00;;;;5035880;28;20443;-85
2022/12/30 07:38:34;;;;;;;39.33;22.03;;;1.10;99.90;1.70;96976.00;;;;5029523;28;20424;-85
2022/12/30 07:41:23;;;;;;;28.20;16.07;;;1.10;99.90;1.90;96964.00;;;;5029148;28;20471;-85
2022/12/30 07:44:12;;;;;;;26.10;17.57;;;1.10;99.90;2.10;96974.00;;;;5030283;28;20440;-83
2022/12/30 07:47:01;;;;;;;25.10;13.17;;;1.10;99.90;2.10;96983.00;;;;5029373;28;20466;-83
2022/12/30 07:49:51;;;;;;;18.90;10.03;;;1.20;99.90;1.80;96987.00;;;;5034114;28;20429;-84
2022/12/30 07:52:40;;;;;;;10.90;7.83;;;1.10;99.90;1.90;96999.00;;;;5032080;28;20431;-86
2022/12/30 07:55:29;;;;;;;10.20;6.33;;;1.10;99.90;2.00;96998.00;;;;5032298;28;21639;-86
2022/12/30 07:58:18;;;;;;;3.20;2.90;;;1.00;99.90;1.90;97002.00;;;;5032404;28;20421;-86
2022/12/30 08:01:09;;;;;;;5.63;3.77;;;1.00;99.90;1.90;97011.00;;;;5023783;28;21007;-83
2022/12/30 08:03:58;;;;;;;2.87;2.27;;;1.00;99.90;2.10;97014.00;;;;5031545;28;20443;-86
2022/12/30 08:06:54;;;;;;;3.20;2.70;;;1.10;99.90;2.00;97008.00;;;;5027180;28;20478;-85
2022/12/30 08:09:43;;;;;;;9.87;3.60;;;1.10;99.90;2.00;97020.00;;;;5024637;28;20429;-84
2022/12/30 08:12:33;;;;;;;4.97;3.00;;;1.10;99.90;2.40;97026.00;;;;5018305;28;20440;-84
2022/12/30 08:15:22;;;;;;;3.57;3.00;;;1.20;99.90;2.30;97022.00;;;;5026323;28;20471;-85
2022/12/30 08:18:11;;;;;;;4.67;2.80;;;1.30;99.90;2.50;97042.00;;;;5030528;28;20882;-85
2022/12/30 08:21:01;;;;;;;4.43;2.73;;;1.40;99.90;2.30;97029.00;;;;5023795;28;20847;-83
2022/12/30 08:23:51;;;;;;;6.63;3.90;;;1.40;99.90;2.40;97045.00;;;;5026460;28;20456;-84
2022/12/30 08:26:40;;;;;;;10.17;6.17;;;1.50;99.90;2.60;97038.00;;;;5024232;28;20965;-84
2022/12/30 08:29:29;;;;;;;8.93;5.80;;;1.70;99.90;2.50;97040.00;;;;5033003;28;20440;-85
2022/12/30 08:32:18;;;;;;;6.40;4.77;;;1.70;99.90;2.40;97034.00;;;;5028812;28;20432;-85
2022/12/30 08:35:08;;;;;;;8.70;5.87;;;1.70;99.90;2.50;97023.00;;;;5029446;28;20436;-85
2022/12/30 08:37:57;;;;;;;4.97;4.10;;;1.70;99.90;2.30;97035.00;;;;5035157;28;20437;-86
2022/12/30 08:40:47;;;;;;;1.87;1.70;;;1.80;99.90;2.10;97036.00;;;;5030235;28;20472;-87
2022/12/30 08:43:38;;;;;;;3.50;2.00;;;1.80;99.90;2.10;97033.00;;;;5032264;28;20464;-88
2022/12/30 08:46:29;;;;;;;4.87;3.27;;;1.60;99.90;2.40;97037.00;;;;5028227;28;21093;-85
2022/12/30 08:49:18;;;;;;;3.03;2.80;;;1.70;99.90;2.90;97042.00;;;;5028924;28;20985;-85
2022/12/30 08:52:07;;;;;;;3.97;3.57;;;1.80;99.90;3.20;97037.00;;;;5026226;28;20819;-84
2022/12/30 08:54:56;;;;;;;8.17;4.23;;;2.10;99.90;3.90;97052.00;;;;5029125;28;20452;-84
2022/12/30 08:57:46;;;;;;;5.20;4.23;;;2.20;99.90;4.10;97054.00;;;;5031357;28;20432;-86
2022/12/30 09:00:35;;;;;;;3.93;3.33;;;2.50;99.90;4.30;97060.00;;;;5022970;28;20961;-87
2022/12/30 09:03:24;;;;;;;4.33;3.37;;;2.80;99.90;4.60;97069.00;;;;5033549;28;20471;-87
2022/12/30 09:06:15;;;;;;;5.00;4.20;;;3.00;99.90;5.10;97053.00;;;;5032650;28;20953;-83
2022/12/30 09:09:07;;;;;;;5.07;4.17;;;5.00;99.90;5.00;97071.00;;;;5021995;28;20929;-87
2022/12/30 09:11:56;;;;;;;24.23;8.30;;;3.50;99.90;4.80;97063.00;;;;5030564;28;20471;-87
2022/12/30 09:14:46;;;;;;;7.47;5.00;;;3.60;99.90;4.80;97066.00;;;;5032037;28;20799;-83
2022/12/30 09:17:36;;;;;;;5.77;4.53;;;3.70;99.90;4.60;97069.00;;;;5027930;28;20285;-84
2022/12/30 09:20:25;;;;;;;6.20;4.87;;;3.60;99.90;4.90;97080.00;;;;5032148;28;20467;-85
2022/12/30 09:23:14;;;;;;;4.63;4.23;;;3.70;99.90;5.00;97092.00;;;;5022537;28;20492;-85
2022/12/30 09:26:09;;;;;;;6.83;3.73;;;3.70;99.90;4.80;97093.00;;;;5030169;28;20474;-85
2022/12/30 09:28:58;;;;;;;6.57;4.90;;;3.70;99.90;4.90;97100.00;;;;5024495;28;20440;-86
2022/12/30 09:31:48;;;;;;;6.53;4.37;;;3.70;99.90;5.10;97097.00;;;;5030486;28;20454;-85
2022/12/30 09:34:38;;;;;;;6.70;4.60;;;3.70;99.90;5.10;97093.00;;;;5031649;28;20217;-83
2022/12/30 09:37:30;;;;;;;7.10;5.17;;;3.70;99.90;4.80;97083.00;;;;5031423;28;20933;-85
2022/12/30 09:40:29;;;;;;;7.37;4.53;;;3.70;99.90;4.80;97087.00;;;;5024677;28;20559;-85
2022/12/30 09:43:29;;;;;;;4.93;4.43;;;3.80;99.90;5.10;97091.00;;;;5021638;28;20463;-84
2022/12/30 09:46:34;;;;;;;5.47;4.20;;;3.90;99.90;5.70;97091.00;;;;5027772;28;20209;-84
2022/12/30 09:49:30;;;;;;;7.93;4.30;;;4.00;99.90;6.10;97094.00;;;;5027621;28;20205;-85
2022/12/30 09:52:24;;;;;;;8.63;4.53;;;4.30;99.90;6.30;97081.00;;;;5017855;28;20214;-85
2022/12/30 09:55:19;;;;;;;8.10;4.30;;;4.40;99.90;6.70;97084.00;;;;5019097;28;20675;-84
2022/12/30 09:58:22;;;;;;;7.97;4.23;;;4.80;99.90;6.40;97092.00;;;;5025177;28;20197;-84
2022/12/30 10:01:24;;;;;;;7.27;4.60;;;5.00;99.90;6.80;97103.00;;;;5028961;28;20213;-85
2022/12/30 10:04:16;;;;;;;12.60;4.60;;;5.20;99.90;6.80;97098.00;;;;5029678;28;20228;-86
2022/12/30 10:07:15;;;;;;;5.50;4.17;;;5.30;99.90;6.80;97095.00;;;;5025251;28;20193;-86
2022/12/30 10:10:11;;;;;;;5.03;4.03;;;5.40;99.90;7.30;97099.00;;;;5027415;28;20224;-84
2022/12/30 10:13:08;;;;;;;5.87;4.10;;;5.50;99.90;7.30;97099.00;;;;5027835;28;20201;-84
2022/12/30 10:16:07;;;;;;;8.40;4.07;;;5.60;99.90;7.50;97097.00;;;;5024055;28;20205;-85
2022/12/30 10:19:14;;;;;;;10.40;4.57;;;5.70;99.90;7.60;97098.00;;;;5018920;28;20201;-84
2022/12/30 10:22:15;;;;;;;8.37;4.30;;;5.80;99.90;7.50;97087.00;;;;5027918;28;20221;-85
2022/12/30 10:25:23;;;;;;;6.27;3.73;;;5.90;99.90;7.60;97084.00;;;;5036632;28;20216;-84
2022/12/30 10:28:15;;;;;;;11.57;4.10;;;5.90;99.90;7.50;97083.00;;;;5032234;28;20205;-85
2022/12/30 10:31:07;;;;;;;9.57;4.00;;;6.00;99.90;7.60;97082.00;;;;5031527;28;20213;-86
2022/12/30 10:34:05;;;;;;;8.47;4.33;;;6.00;99.90;7.80;97074.00;;;;5031555;28;20601;-84
2022/12/30 10:37:00;;;;;;;6.30;3.90;;;6.10;99.90;7.70;97080.00;;;;5030254;28;20201;-85
2022/12/30 10:39:52;;;;;;;4.87;4.10;;;6.10;99.90;7.80;97085.00;;;;5022532;28;20204;-84
2022/12/30 10:43:04;;;;;;;5.40;3.80;;;6.20;99.90;7.80;97084.00;;;;5032159;28;20201;-84
2022/12/30 10:46:10;;;;;;;6.87;4.43;;;6.20;99.90;7.40;97090.00;;;;5031543;28;20209;-84
2022/12/30 10:49:24;;;;;;;9.63;3.73;;;6.20;99.90;7.40;97075.00;;;;5041041;28;20581;-86
2022/12/30 10:52:14;;;;;;;8.93;4.83;;;6.10;99.90;7.50;97078.00;;;;5034617;28;20263;-86
2022/12/30 10:55:19;;;;;;;5.63;3.93;;;6.10;99.90;7.70;97074.00;;;;5026977;28;20198;-85
2022/12/30 10:58:27;;;;;;;4.50;3.77;;;6.20;99.90;7.80;97074.00;;;;5025931;28;20208;-86
2022/12/30 11:01:21;;;;;;;6.47;3.80;;;6.20;99.90;7.90;97083.00;;;;5033767;28;20555;-84
2022/12/30 11:04:36;;;;;;;5.23;4.00;;;6.20;99.90;8.00;97070.00;;;;5032308;28;20724;-84
2022/12/30 11:07:25;;;;;;;5.53;3.90;;;6.30;99.90;8.00;97074.00;;;;5031516;28;20213;-85
2022/12/30 11:10:19;;;;;;;10.30;4.80;;;6.70;99.90;7.70;97082.00;;;;5032371;28;20228;-85
2022/12/30 11:16:26;;;;;;;11.63;5.50;;;6.30;99.90;7.20;97081.00;;;;5030085;28;20197;-85
2022/12/30 11:19:24;;;;;;;7.57;4.83;;;6.10;99.90;7.30;97078.00;;;;5027331;28;20698;-84
2022/12/30 11:22:14;;;;;;;7.23;4.83;;;6.10;99.90;7.60;97083.00;;;;5034075;28;20216;-84
2022/12/30 11:25:15;;;;;;;7.83;4.60;;;6.00;99.90;7.90;97081.00;;;;5030714;28;20233;-85
2022/12/30 11:28:08;;;;;;;9.00;5.43;;;6.10;99.90;8.00;97066.00;;;;5034413;28;20606;-83
2022/12/30 11:31:04;;;;;;;7.03;5.37;;;6.20;99.90;7.80;97068.00;;;;5041921;28;20229;-85
2022/12/30 11:33:56;;;;;;;8.43;5.77;;;6.30;99.90;7.80;97063.00;;;;5027535;28;20237;-84
2022/12/30 11:36:47;;;;;;;16.90;8.47;;;6.30;99.90;7.80;97080.00;;;;5031908;28;20209;-84
2022/12/30 11:39:37;;;;;;;14.03;10.87;;;6.40;99.90;7.80;97072.00;;;;5025696;28;20202;-85
2022/12/30 11:42:31;;;;;;;12.07;10.60;;;6.40;99.90;7.90;97066.00;;;;5033028;28;20200;-85
2022/12/30 11:45:23;;;;;;;9.23;6.37;;;6.40;99.90;7.60;97065.00;;;;5042546;28;20221;-86
2022/12/30 11:48:24;;;;;;;10.10;7.93;;;6.40;99.90;7.50;97066.00;;;;5042809;28;20200;-86
2022/12/30 11:51:18;;;;;;;10.23;7.87;;;6.30;99.90;7.70;97068.00;;;;5043107;28;20224;-85
2022/12/30 11:54:14;;;;;;;7.50;6.23;;;6.30;99.90;7.80;97066.00;;;;5042758;28;20228;-84
2022/12/30 11:57:07;;;;;;;7.93;5.00;;;6.30;99.90;7.90;97066.00;;;;5043125;28;20208;-84
2022/12/30 12:00:00;;;;;;;4.80;3.77;;;6.40;99.90;8.00;97063.00;;;;5045699;28;20201;-86
2022/12/30 12:02:52;;;;;;;6.13;4.30;;;6.40;99.90;8.00;97063.00;;;;5034222;28;20689;-87
2022/12/30 12:05:43;;;;;;;7.73;4.70;;;6.50;99.90;7.60;97058.00;;;;5037206;28;20205;-84
2022/12/30 12:08:35;;;;;;;11.10;4.37;;;6.50;99.90;7.60;97064.00;;;;5029844;28;20201;-87
2022/12/30 12:11:30;;;;;;;10.10;4.60;;;6.40;99.90;7.90;97068.00;;;;5039039;28;20757;-86
2022/12/30 12:14:27;;;;;;;8.03;4.53;;;6.40;99.90;8.30;97070.00;;;;5031809;28;20206;-86
2022/12/30 12:17:30;;;;;;;9.07;5.80;;;6.50;99.90;8.50;97057.00;;;;5032365;28;20225;-86
2022/12/30 12:20:29;;;;;;;9.23;5.53;;;6.60;99.90;8.60;97058.00;;;;5030881;28;20256;-85
2022/12/30 12:23:26;;;;;;;8.60;6.37;;;6.80;99.90;8.40;97055.00;;;;5034701;28;20317;-86
2022/12/30 12:26:20;;;;;;;9.77;6.93;;;6.80;99.90;8.30;97042.00;;;;5034147;28;20209;-86
2022/12/30 12:29:11;;;;;;;7.43;5.90;;;7.00;99.90;8.40;97039.00;;;;5034395;28;20201;-85
2022/12/30 12:32:38;;;;;;;10.03;5.63;;;7.00;99.90;8.60;97040.00;;;;5035262;28;20236;-84
2022/12/30 12:35:48;;;;;;;7.93;5.20;;;7.10;99.90;8.50;97042.00;;;;5025570;28;20205;-87
2022/12/30 12:38:53;;;;;;;8.27;4.67;;;7.10;99.90;8.40;97039.00;;;;5029184;28;20263;-85
2022/12/30 12:42:00;;;;;;;10.67;3.97;;;7.10;99.90;8.30;97040.00;;;;5032200;28;20235;-85
2022/12/30 12:45:16;;;;;;;5.57;4.67;;;7.10;99.90;8.30;97036.00;;;;5037078;28;20235;-85
2022/12/30 12:48:24;;;;;;;6.27;4.10;;;7.00;99.90;8.60;97040.00;;;;5041444;28;20209;-87
2022/12/30 12:51:35;;;;;;;8.17;4.23;;;7.00;99.90;8.70;97034.00;;;;5034670;28;20224;-84
2022/12/30 12:55:14;;;;;;;5.97;4.90;;;7.10;99.90;8.80;97034.00;;;;5040189;28;20205;-85
2022/12/30 12:58:08;;;;;;;6.87;4.57;;;7.20;99.90;9.00;97028.00;;;;5030315;28;20201;-84
2022/12/30 13:01:07;;;;;;;10.43;4.53;;;7.30;99.90;8.80;97025.00;;;;5041796;28;20295;-86
2022/12/30 13:04:16;;;;;;;7.40;5.23;;;7.30;99.90;8.80;97020.00;;;;5044842;28;20196;-86
2022/12/30 13:07:18;;;;;;;5.50;4.67;;;7.40;99.90;9.00;97022.00;;;;5044694;28;20284;-85
2022/12/30 13:10:23;;;;;;;5.47;4.70;;;7.40;99.90;9.30;97020.00;;;;5041443;28;20301;-88
2022/12/30 13:13:21;;;;;;;5.57;4.17;;;7.50;99.90;9.00;97018.00;;;;5040730;28;20216;-87
2022/12/30 13:16:16;;;;;;;6.67;4.97;;;7.60;99.90;8.90;97023.00;;;;5045638;28;20208;-86
2022/12/30 13:19:12;;;;;;;9.70;4.93;;;7.50;99.90;8.90;97020.00;;;;5042621;28;20204;-87
2022/12/30 13:22:08;;;;;;;9.23;5.77;;;7.50;99.90;8.80;97023.00;;;;5041399;28;20243;-87
2022/12/30 13:24:58;;;;;;;5.30;4.20;;;7.50;99.90;8.90;97027.00;;;;5033147;28;20229;-87
2022/12/30 13:27:51;;;;;;;6.67;4.87;;;7.50;99.90;9.10;97025.00;;;;5040444;28;20193;-85
2022/12/30 13:30:50;;;;;;;9.37;5.27;;;7.50;99.90;8.90;97026.00;;;;5042044;28;20231;-85
2022/12/30 13:33:57;;;;;;;6.43;4.97;;;7.50;99.90;8.90;97013.00;;;;5036873;28;20213;-84
2022/12/30 13:36:56;;;;;;;10.93;4.80;;;7.50;99.90;8.80;97021.00;;;;5045426;28;20208;-85
2022/12/30 13:39:52;;;;;;;7.77;5.27;;;7.50;99.90;8.90;97023.00;;;;5039178;28;20722;-87
2022/12/30 13:43:00;;;;;;;7.03;5.60;;;7.40;99.90;9.20;97022.00;;;;5045685;28;20205;-86
2022/12/30 13:45:53;;;;;;;4.77;3.93;;;7.50;99.90;9.30;97035.00;;;;5035071;28;20251;-85
2022/12/30 13:48:51;;;;;;;7.30;4.83;;;7.50;99.90;9.10;97021.00;;;;5039307;28;20252;-84
2022/12/30 13:51:40;;;;;;;7.97;5.23;;;7.50;99.90;9.10;97026.00;;;;5043000;28;20216;-86
2022/12/30 13:54:32;;;;;;;7.87;5.50;;;7.50;99.90;9.10;97018.00;;;;5040343;28;20217;-88
2022/12/30 13:57:33;;;;;;;17.27;9.33;;;7.50;99.90;8.80;97031.00;;;;5044919;28;20276;-87
2022/12/30 14:00:31;;;;;;;16.23;9.47;;;7.50;99.90;8.70;97028.00;;;;5040045;28;20638;-86
2022/12/30 14:03:36;;;;;;;38.37;19.47;;;7.40;99.90;8.70;97027.00;;;;5035243;28;20273;-85